createdAt,value
2023-03-20T00:00:46.886Z,22.93
2023-03-20T00:03:14.515Z,24.57
2023-03-20T00:05:42.768Z,22.10
2023-03-20T00:08:09.887Z,27.30
2023-03-20T00:10:41.336Z,24.87
2023-03-20T00:13:14.843Z,23.43
2023-03-20T00:15:44.616Z,24.43
2023-03-20T00:18:18.340Z,24.70
2023-03-20T00:20:47.577Z,23.23
2023-03-20T00:23:14.894Z,24.23
2023-03-20T00:25:44.598Z,24.30
2023-03-20T00:28:38.882Z,21.17
2023-03-20T00:31:18.137Z,24.70
2023-03-20T00:33:45.457Z,21.33
2023-03-20T00:36:13.722Z,22.47
2023-03-20T00:38:40.843Z,23.97
2023-03-20T00:41:23.496Z,26.53
2023-03-20T00:43:54.926Z,22.67
2023-03-20T00:46:22.539Z,22.90
2023-03-20T00:48:50.685Z,24.07
2023-03-20T00:51:19.859Z,21.00
2023-03-20T00:53:46.740Z,21.53
2023-03-20T00:56:33.858Z,25.10
2023-03-20T00:59:03.451Z,24.13
2023-03-20T01:01:32.055Z,23.33
2023-03-20T01:03:59.522Z,25.57
2023-03-20T01:06:28.836Z,22.97
2023-03-20T01:08:57.618Z,24.07
2023-03-20T01:11:24.998Z,23.13
2023-03-20T01:13:52.324Z,25.40
2023-03-20T01:16:23.268Z,23.93
2023-03-20T01:18:51.263Z,23.30
2023-03-20T01:21:18.948Z,22.90
2023-03-20T01:23:48.312Z,22.57
2023-03-20T01:26:27.347Z,21.37
2023-03-20T01:28:54.331Z,20.87
2023-03-20T01:31:21.383Z,23.20
2023-03-20T01:33:48.442Z,19.67
2023-03-20T01:36:22.108Z,23.63
2023-03-20T01:38:54.910Z,17.80
2023-03-20T01:41:25.308Z,22.17
2023-03-20T01:43:52.953Z,16.87
2023-03-20T01:46:25.187Z,16.77
2023-03-20T01:49:05.682Z,12.20
2023-03-20T01:51:33.043Z,10.50
2023-03-20T01:54:07.568Z,7.83
2023-03-20T01:56:41.686Z,7.93
2023-03-20T01:59:15.842Z,7.20
2023-03-20T02:01:44.555Z,7.50
2023-03-20T02:04:14.560Z,7.37
2023-03-20T02:06:44.851Z,10.90
2023-03-20T02:09:13.556Z,7.00
2023-03-20T02:11:44.831Z,7.33
2023-03-20T02:14:14.090Z,9.07
2023-03-20T02:16:41.619Z,7.20
2023-03-20T02:19:23.046Z,7.53
2023-03-20T02:22:37.868Z,7.37
2023-03-20T02:26:04.249Z,7.07
2023-03-20T02:29:28.564Z,7.33
2023-03-20T02:32:39.389Z,7.13
2023-03-20T02:35:50.828Z,6.73
2023-03-20T02:38:52.105Z,8.17
2023-03-20T02:41:30.183Z,6.27
2023-03-20T02:44:07.779Z,7.10
2023-03-20T02:46:48.662Z,6.97
2023-03-20T02:49:33.167Z,5.60
2023-03-20T02:52:10.612Z,6.37
2023-03-20T02:54:49.176Z,6.33
2023-03-20T02:57:27.825Z,5.33
2023-03-20T03:00:01.372Z,5.70
2023-03-20T03:02:37.456Z,6.17
2023-03-20T03:05:13.448Z,6.53
2023-03-20T03:07:45.480Z,5.03
2023-03-20T03:10:19.743Z,5.90
2023-03-20T03:12:52.450Z,5.77
2023-03-20T03:15:27.922Z,5.70
2023-03-20T03:17:58.110Z,5.83
2023-03-20T03:20:30.716Z,5.50
2023-03-20T03:22:58.910Z,5.80
2023-03-20T03:25:33.197Z,5.53
2023-03-20T03:28:07.951Z,7.17
2023-03-20T03:30:39.620Z,6.60
2023-03-20T03:33:17.994Z,6.67
2023-03-20T03:35:46.594Z,6.83
2023-03-20T03:38:29.090Z,5.57
2023-03-20T03:41:17.907Z,6.00
2023-03-20T03:43:52.949Z,5.67
2023-03-20T03:46:30.647Z,7.23
2023-03-20T03:48:59.348Z,4.80
2023-03-20T03:51:31.470Z,6.57
2023-03-20T03:54:05.816Z,6.17
2023-03-20T03:56:38.608Z,7.10
2023-03-20T03:59:12.703Z,6.03
2023-03-20T04:01:44.289Z,6.50
2023-03-20T04:04:15.861Z,7.07
2023-03-20T04:06:43.302Z,7.40
2023-03-20T04:09:10.429Z,6.03
2023-03-20T04:11:38.713Z,6.60
2023-03-20T04:14:05.692Z,7.43
2023-03-20T04:16:32.638Z,9.13
2023-03-20T04:18:59.530Z,7.87
2023-03-20T04:21:26.483Z,7.63
2023-03-20T04:23:53.376Z,8.03
2023-03-20T04:26:21.450Z,8.00
2023-03-20T04:28:50.837Z,8.87
2023-03-20T04:31:17.990Z,7.13
2023-03-20T04:33:45.323Z,7.07
2023-03-20T04:36:12.496Z,9.37
2023-03-20T04:38:39.590Z,9.10
2023-03-20T04:41:07.993Z,8.10
2023-03-20T04:43:35.028Z,8.87
2023-03-20T04:46:03.637Z,8.53
2023-03-20T04:48:30.585Z,8.03
2023-03-20T04:50:57.727Z,7.97
2023-03-20T04:53:27.094Z,9.53
2023-03-20T04:55:54.228Z,9.47
2023-03-20T04:58:21.234Z,7.70
2023-03-20T05:00:48.174Z,10.00
2023-03-20T05:03:16.408Z,10.83
2023-03-20T05:05:43.635Z,7.90
2023-03-20T05:08:11.012Z,10.30
2023-03-20T05:10:37.876Z,10.13
2023-03-20T05:13:04.768Z,8.33
2023-03-20T05:15:31.999Z,9.37
2023-03-20T05:17:58.890Z,8.63
2023-03-20T05:20:27.203Z,8.07
2023-03-20T05:22:54.093Z,9.00
2023-03-20T05:25:21.071Z,8.83
2023-03-20T05:27:48.009Z,10.37
2023-03-20T05:30:15.872Z,10.53
2023-03-20T05:32:43.676Z,9.77
2023-03-20T05:35:11.645Z,10.03
2023-03-20T05:37:39.992Z,11.20
2023-03-20T05:40:11.056Z,11.60
2023-03-20T05:42:38.196Z,10.97
2023-03-20T05:45:06.351Z,9.83
2023-03-20T05:47:33.277Z,9.10
2023-03-20T05:50:00.311Z,10.17
2023-03-20T05:52:27.258Z,9.33
2023-03-20T05:54:55.508Z,10.27
2023-03-20T05:57:22.783Z,11.23
2023-03-20T05:59:49.706Z,10.13
2023-03-20T06:02:17.214Z,12.50
2023-03-20T06:04:44.212Z,11.00
2023-03-20T06:07:11.109Z,10.73
2023-03-20T06:09:38.080Z,11.77
2023-03-20T06:12:07.228Z,9.73
2023-03-20T06:14:34.118Z,12.07
2023-03-20T06:17:01.478Z,9.50
2023-03-20T06:19:28.646Z,12.03
2023-03-20T06:21:55.649Z,10.60
2023-03-20T06:24:23.155Z,10.87
2023-03-20T06:26:50.140Z,10.83
2023-03-20T06:29:18.412Z,10.47
2023-03-20T06:31:45.525Z,10.70
2023-03-20T06:34:12.659Z,9.93
2023-03-20T06:36:39.571Z,13.13
2023-03-20T06:39:07.693Z,9.50
2023-03-20T06:41:35.242Z,9.87
2023-03-20T06:44:03.647Z,11.97
2023-03-20T06:46:31.925Z,10.40
2023-03-20T06:48:59.011Z,11.60
2023-03-20T06:51:26.080Z,7.90
2023-03-20T06:53:53.021Z,10.93
2023-03-20T06:56:20.092Z,8.87
2023-03-20T06:58:47.022Z,9.93
2023-03-20T07:01:17.782Z,8.63
2023-03-20T07:03:46.261Z,8.00
2023-03-20T07:06:13.488Z,8.23
2023-03-20T07:08:40.565Z,8.53
2023-03-20T07:11:07.898Z,8.60
2023-03-20T07:13:34.768Z,9.63
2023-03-20T07:16:05.101Z,9.17
2023-03-20T07:18:32.239Z,9.07
2023-03-20T07:21:03.928Z,9.63
2023-03-20T07:23:31.788Z,8.93
2023-03-20T07:25:59.401Z,9.23
2023-03-20T07:28:27.188Z,9.30
2023-03-20T07:30:54.478Z,10.80
2023-03-20T07:33:21.525Z,10.33
2023-03-20T07:35:53.824Z,8.77
2023-03-20T07:38:23.311Z,9.37
2023-03-20T07:40:54.103Z,8.67
2023-03-20T07:43:21.132Z,8.57
2023-03-20T07:45:48.278Z,8.60
2023-03-20T07:48:15.648Z,10.70
2023-03-20T07:50:45.749Z,9.57
2023-03-20T07:53:12.685Z,11.20
2023-03-20T07:55:41.039Z,8.63
2023-03-20T07:58:08.929Z,11.23
2023-03-20T08:00:36.648Z,12.37
2023-03-20T08:03:04.080Z,9.53
2023-03-20T08:05:31.145Z,10.00
2023-03-20T08:07:58.315Z,8.97
2023-03-20T08:10:25.542Z,13.60
2023-03-20T08:12:53.913Z,7.73
2023-03-20T08:15:20.809Z,9.13
2023-03-20T08:17:48.177Z,8.67
2023-03-20T08:20:17.145Z,8.90
2023-03-20T08:22:45.100Z,7.77
2023-03-20T08:25:12.376Z,11.20
2023-03-20T08:27:39.407Z,8.80
2023-03-20T08:30:09.959Z,8.43
2023-03-20T08:32:37.667Z,9.13
2023-03-20T08:35:05.995Z,9.70
2023-03-20T08:37:33.008Z,8.50
2023-03-20T08:40:00.306Z,7.83
2023-03-20T08:42:27.298Z,10.17
2023-03-20T08:44:54.170Z,11.07
2023-03-20T08:47:22.535Z,10.47
2023-03-20T08:49:50.192Z,14.13
2023-03-20T08:52:17.225Z,12.43
2023-03-20T08:54:44.157Z,10.23
2023-03-20T08:57:11.129Z,8.33
2023-03-20T08:59:38.266Z,10.07
2023-03-20T09:02:07.028Z,7.33
2023-03-20T09:04:35.412Z,9.77
2023-03-20T09:07:03.125Z,9.10
2023-03-20T09:09:30.456Z,7.97
2023-03-20T09:11:58.590Z,7.87
2023-03-20T09:14:28.024Z,9.33
2023-03-20T09:16:55.049Z,6.97
2023-03-20T09:19:22.063Z,7.73
2023-03-20T09:21:50.553Z,7.97
2023-03-20T09:24:17.498Z,11.47
2023-03-20T09:26:44.449Z,9.80
2023-03-20T09:29:11.424Z,9.53
2023-03-20T09:31:38.450Z,7.60
2023-03-20T09:34:05.570Z,11.33
2023-03-20T09:36:33.237Z,9.67
2023-03-20T09:39:01.762Z,7.40
2023-03-20T09:41:32.375Z,7.30
2023-03-20T09:44:13.700Z,8.50
2023-03-20T09:47:19.455Z,6.60
2023-03-20T09:50:07.926Z,8.67
2023-03-20T09:52:40.946Z,13.97
2023-03-20T09:55:16.742Z,10.10
2023-03-20T09:57:49.204Z,8.13
2023-03-20T10:00:20.976Z,7.90
2023-03-20T10:02:53.007Z,8.80
2023-03-20T10:05:25.438Z,7.73
2023-03-20T10:07:56.271Z,6.47
2023-03-20T10:10:38.331Z,10.53
2023-03-20T10:13:35.505Z,8.70
2023-03-20T10:16:17.582Z,7.67
2023-03-20T10:18:56.136Z,6.70
2023-03-20T10:21:39.747Z,6.40
2023-03-20T10:24:19.684Z,7.60
2023-03-20T10:26:55.168Z,6.33
2023-03-20T10:29:38.033Z,6.90
2023-03-20T10:32:17.394Z,6.23
2023-03-20T10:35:02.335Z,5.27
2023-03-20T10:37:51.630Z,7.13
2023-03-20T10:40:30.319Z,8.43
2023-03-20T10:43:04.014Z,9.03
2023-03-20T10:45:42.799Z,6.63
2023-03-20T10:48:20.068Z,7.07
2023-03-20T10:50:51.842Z,7.47
2023-03-20T10:53:32.070Z,6.50
2023-03-20T10:56:05.533Z,8.37
2023-03-20T10:58:39.430Z,5.57
2023-03-20T11:01:07.719Z,6.43
2023-03-20T11:03:39.569Z,5.17
2023-03-20T11:06:17.399Z,6.40
2023-03-20T11:08:51.175Z,6.17
2023-03-20T11:11:25.408Z,7.13
2023-03-20T11:13:54.498Z,4.87
2023-03-20T11:16:24.540Z,7.57
2023-03-20T11:18:53.854Z,6.57
2023-03-20T11:21:27.065Z,6.73
2023-03-20T11:23:55.881Z,7.10
2023-03-20T11:26:36.090Z,8.73
2023-03-20T11:29:07.795Z,5.87
2023-03-20T11:31:39.146Z,6.67
2023-03-20T11:34:26.593Z,7.23
2023-03-20T11:37:09.755Z,6.30
2023-03-20T11:39:38.230Z,7.03
2023-03-20T11:42:24.775Z,6.33
2023-03-20T11:45:02.073Z,6.20
2023-03-20T11:47:34.940Z,7.93
2023-03-20T11:50:05.911Z,5.60
2023-03-20T11:52:37.096Z,5.93
2023-03-20T11:55:20.266Z,5.47
2023-03-20T11:57:49.274Z,9.17
2023-03-20T12:00:21.528Z,7.67
2023-03-20T12:02:49.072Z,6.37
2023-03-20T12:05:32.860Z,6.77
2023-03-20T12:08:06.296Z,7.00
2023-03-20T12:10:42.298Z,9.10
2023-03-20T12:13:20.125Z,7.53
2023-03-20T12:15:54.305Z,8.33
2023-03-20T12:18:30.892Z,8.40
2023-03-20T12:21:10.998Z,8.03
2023-03-20T12:23:45.547Z,11.93
2023-03-20T12:26:17.655Z,6.33
2023-03-20T12:28:54.687Z,7.60
2023-03-20T12:31:29.371Z,9.87
2023-03-20T12:34:06.006Z,6.83
2023-03-20T12:36:37.164Z,7.27
2023-03-20T12:39:11.266Z,11.37
2023-03-20T12:41:49.364Z,5.70
2023-03-20T12:44:35.916Z,8.33
2023-03-20T12:47:57.146Z,7.53
2023-03-20T12:50:33.262Z,7.50
2023-03-20T12:53:22.388Z,5.93
2023-03-20T12:56:08.811Z,6.60
2023-03-20T12:58:58.338Z,8.47
2023-03-20T13:01:32.215Z,7.73
2023-03-20T13:04:26.011Z,7.13
2023-03-20T13:06:56.098Z,5.67
2023-03-20T13:10:08.799Z,7.77
2023-03-20T13:12:52.222Z,6.63
2023-03-20T13:15:40.788Z,7.20
2023-03-20T13:18:20.390Z,8.00
2023-03-20T13:20:54.174Z,6.53
2023-03-20T13:23:27.469Z,6.67
2023-03-20T13:26:21.403Z,7.50
2023-03-20T13:29:02.312Z,7.30
2023-03-20T13:31:49.067Z,7.87
2023-03-20T13:34:34.907Z,8.63
2023-03-20T13:37:23.326Z,7.57
2023-03-20T13:40:04.679Z,6.27
2023-03-20T13:42:41.610Z,6.37
2023-03-20T13:45:28.417Z,6.70
2023-03-20T13:48:00.166Z,6.97
2023-03-20T13:50:49.418Z,10.03
2023-03-20T13:53:32.246Z,7.17
2023-03-20T13:56:14.017Z,6.47
2023-03-20T13:59:03.674Z,8.43
2023-03-20T14:01:49.264Z,8.90
2023-03-20T14:04:21.026Z,8.27
2023-03-20T14:06:54.645Z,7.00
2023-03-20T14:09:32.438Z,6.77
2023-03-20T14:12:04.923Z,7.27
2023-03-20T14:14:39.628Z,7.63
2023-03-20T14:17:17.932Z,7.57
2023-03-20T14:19:48.074Z,6.73
2023-03-20T14:22:19.049Z,7.90
2023-03-20T14:24:56.024Z,8.37
2023-03-20T14:27:45.110Z,7.77
2023-03-20T14:30:39.000Z,6.60
2023-03-20T14:33:23.666Z,8.13
2023-03-20T14:36:12.169Z,7.83
2023-03-20T14:38:54.881Z,6.13
2023-03-20T14:41:35.380Z,9.17
2023-03-20T14:44:25.129Z,10.47
2023-03-20T14:47:01.739Z,6.07
2023-03-20T14:49:51.413Z,8.87
2023-03-20T14:52:48.985Z,7.63
2023-03-20T14:55:47.175Z,9.80
2023-03-20T14:58:48.895Z,8.00
2023-03-20T15:01:24.983Z,8.00
2023-03-20T15:03:59.669Z,7.03
2023-03-20T15:06:29.002Z,8.07
2023-03-20T15:09:00.810Z,7.27
2023-03-20T15:11:29.373Z,8.13
2023-03-20T15:14:00.266Z,6.00
2023-03-20T15:16:30.684Z,7.57
2023-03-20T15:18:58.603Z,8.67
2023-03-20T15:21:33.132Z,9.53
2023-03-20T15:24:01.663Z,6.63
2023-03-20T15:26:32.521Z,8.00
2023-03-20T15:29:05.410Z,6.50
2023-03-20T15:31:36.717Z,5.80
2023-03-20T15:34:08.867Z,5.20
2023-03-20T15:36:39.803Z,10.73
2023-03-20T15:39:15.415Z,7.47
2023-03-20T15:41:48.282Z,5.57
2023-03-20T15:44:22.718Z,6.37
2023-03-20T15:46:58.655Z,8.20
2023-03-20T15:49:27.204Z,9.60
2023-03-20T15:51:58.720Z,7.37
2023-03-20T15:54:27.092Z,6.53
2023-03-20T15:56:57.973Z,5.80
2023-03-20T15:59:31.586Z,6.90
2023-03-20T16:02:01.036Z,10.40
2023-03-20T16:04:28.758Z,7.87
2023-03-20T16:06:59.066Z,7.13
2023-03-20T16:09:27.327Z,6.87
2023-03-20T16:12:00.781Z,5.70
2023-03-20T16:14:33.618Z,6.13
2023-03-20T16:17:04.933Z,8.37
2023-03-20T16:19:32.004Z,8.73
2023-03-20T16:22:04.255Z,11.27
2023-03-20T16:24:38.316Z,6.73
2023-03-20T16:27:08.365Z,4.97
2023-03-20T16:29:42.626Z,8.07
2023-03-20T16:32:26.642Z,7.30
2023-03-20T16:34:57.866Z,5.20
2023-03-20T16:37:28.943Z,6.47
2023-03-20T16:40:20.349Z,6.17
2023-03-20T16:42:48.233Z,4.83
2023-03-20T16:45:29.481Z,7.13
2023-03-20T16:48:26.157Z,9.23
2023-03-20T16:51:00.199Z,8.17
2023-03-20T16:53:37.131Z,8.10
2023-03-20T16:56:10.520Z,7.43
2023-03-20T16:58:41.098Z,5.17
2023-03-20T17:01:18.292Z,6.43
2023-03-20T17:03:52.789Z,6.03
2023-03-20T17:06:38.301Z,5.33
2023-03-20T17:09:26.275Z,5.73
2023-03-20T17:12:03.173Z,9.27
2023-03-20T17:14:30.544Z,5.93
2023-03-20T17:17:00.163Z,6.43
2023-03-20T17:19:27.590Z,6.43
2023-03-20T17:21:54.607Z,5.87
2023-03-20T17:24:21.604Z,6.50
2023-03-20T17:26:55.744Z,5.03
2023-03-20T17:29:23.237Z,7.47
2023-03-20T17:32:02.338Z,6.03
2023-03-20T17:34:30.244Z,7.50
2023-03-20T17:36:59.668Z,7.97
2023-03-20T17:39:26.931Z,4.43
2023-03-20T17:41:55.283Z,5.00
2023-03-20T17:44:24.349Z,8.63
2023-03-20T17:46:58.376Z,5.13
2023-03-20T17:49:28.288Z,6.07
2023-03-20T17:51:56.424Z,5.00
2023-03-20T17:54:23.579Z,5.90
2023-03-20T17:56:50.674Z,8.03
2023-03-20T17:59:17.765Z,5.93
2023-03-20T18:01:45.284Z,4.90
2023-03-20T18:04:21.496Z,6.10
2023-03-20T18:06:50.086Z,5.27
2023-03-20T18:09:17.508Z,4.43
2023-03-20T18:11:45.308Z,7.67
2023-03-20T18:14:12.472Z,5.27
2023-03-20T18:16:39.424Z,7.60
2023-03-20T18:19:06.365Z,4.20
2023-03-20T18:21:33.446Z,5.57
2023-03-20T18:24:01.771Z,4.87
2023-03-20T18:26:29.067Z,7.17
2023-03-20T18:28:56.432Z,9.17
2023-03-20T18:31:23.461Z,8.13
2023-03-20T18:33:52.814Z,5.93
2023-03-20T18:36:22.517Z,8.63
2023-03-20T18:38:50.864Z,5.57
2023-03-20T18:41:19.735Z,8.87
2023-03-20T18:43:46.829Z,6.40
2023-03-20T18:46:16.164Z,8.30
2023-03-20T18:48:44.331Z,6.37
2023-03-20T18:51:12.209Z,7.50
2023-03-20T18:53:41.047Z,9.20
2023-03-20T18:56:13.965Z,6.53
2023-03-20T18:58:43.207Z,6.27
2023-03-20T19:01:14.815Z,6.10
2023-03-20T19:03:43.880Z,6.43
2023-03-20T19:06:15.280Z,6.77
2023-03-20T19:08:43.440Z,7.90
2023-03-20T19:11:15.173Z,6.83
2023-03-20T19:13:48.607Z,8.83
2023-03-20T19:16:24.376Z,7.40
2023-03-20T19:18:53.194Z,5.77
2023-03-20T19:21:26.331Z,7.77
2023-03-20T19:23:55.377Z,6.13
2023-03-20T19:26:25.998Z,7.47
2023-03-20T19:28:56.648Z,6.60
2023-03-20T19:31:25.492Z,6.27
2023-03-20T19:33:53.311Z,8.23
2023-03-20T19:36:27.133Z,7.07
2023-03-20T19:38:55.878Z,6.40
2023-03-20T19:41:23.351Z,11.50
2023-03-20T19:43:54.160Z,9.23
2023-03-20T19:46:42.770Z,7.00
2023-03-20T19:49:18.637Z,6.33
2023-03-20T19:51:47.053Z,7.97
2023-03-20T19:54:13.932Z,8.20
2023-03-20T19:56:40.920Z,7.53
2023-03-20T19:59:08.545Z,7.60
2023-03-20T20:01:36.850Z,8.27
2023-03-20T20:04:04.278Z,7.77
2023-03-20T20:06:32.919Z,8.73
2023-03-20T20:09:01.172Z,10.83
2023-03-20T20:11:28.917Z,8.87
2023-03-20T20:14:14.569Z,8.10
2023-03-20T20:16:45.259Z,8.27
2023-03-20T20:19:12.436Z,10.87
2023-03-20T20:22:17.098Z,8.77
2023-03-20T20:24:26.974Z,7.70
2023-03-20T20:27:14.569Z,9.93
2023-03-20T20:29:42.215Z,8.83
2023-03-20T20:32:10.625Z,9.53
2023-03-20T20:40:17.371Z,12.17
2023-03-20T20:42:51.442Z,10.20
2023-03-20T20:45:21.543Z,10.70
2023-03-20T20:47:50.789Z,10.93
2023-03-20T20:50:20.657Z,9.37
2023-03-20T20:52:48.893Z,10.27
2023-03-20T20:55:23.086Z,11.57
2023-03-20T20:57:51.515Z,10.47
2023-03-20T21:00:21.236Z,12.43
2023-03-20T21:02:49.698Z,12.83
2023-03-20T21:05:17.666Z,12.63
2023-03-20T21:07:47.915Z,12.93
2023-03-20T21:10:18.122Z,14.70
2023-03-20T21:12:58.540Z,14.17
2023-03-20T21:15:26.547Z,12.30
2023-03-20T21:18:00.952Z,15.30
2023-03-20T21:20:28.671Z,16.97
2023-03-20T21:22:55.568Z,14.30
2023-03-20T21:25:36.200Z,14.80
2023-03-20T21:28:06.531Z,15.27
2023-03-20T21:30:33.746Z,17.40
2023-03-20T21:33:03.081Z,16.07
2023-03-20T21:35:30.435Z,18.70
2023-03-20T21:38:51.142Z,16.83
2023-03-20T21:40:45.364Z,17.43
2023-03-20T21:43:13.735Z,18.23
2023-03-20T21:49:15.836Z,17.87
2023-03-20T21:52:30.453Z,20.70
2023-03-20T22:00:19.146Z,19.43
2023-03-20T22:02:28.924Z,22.60
2023-03-20T22:08:46.851Z,21.40
2023-03-20T22:11:38.542Z,21.43
2023-03-20T22:19:55.835Z,18.93
2023-03-20T22:31:05.465Z,22.23
2023-03-20T22:33:54.811Z,22.00
2023-03-20T22:36:28.006Z,19.30
2023-03-20T22:46:55.531Z,22.30
2023-03-20T22:49:22.584Z,21.83
2023-03-20T22:52:08.325Z,21.93
2023-03-20T22:54:39.683Z,20.23
2023-03-20T22:57:06.772Z,21.93
2023-03-20T22:59:33.746Z,22.50
2023-03-20T23:02:00.696Z,20.70
2023-03-20T23:04:46.353Z,21.60
2023-03-20T23:07:32.204Z,22.70
2023-03-20T23:10:00.784Z,21.23
2023-03-20T23:12:27.828Z,22.17
2023-03-20T23:14:55.040Z,22.47
2023-03-20T23:17:22.194Z,22.47
2023-03-20T23:19:56.515Z,21.63
2023-03-20T23:22:28.926Z,22.17
2023-03-20T23:24:59.903Z,21.70
2023-03-20T23:27:31.174Z,23.83
2023-03-20T23:29:58.295Z,19.10
2023-03-20T23:32:25.435Z,21.50
2023-03-20T23:34:52.333Z,21.17
2023-03-20T23:37:19.264Z,21.63
2023-03-20T23:39:46.206Z,20.30
2023-03-20T23:42:29.298Z,22.60
2023-03-20T23:45:04.289Z,20.17
2023-03-20T23:47:45.027Z,19.40
2023-03-20T23:50:20.745Z,19.63
2023-03-20T23:53:03.688Z,19.50
2023-03-20T23:55:35.686Z,18.07
2023-03-20T23:58:03.043Z,20.23
